Time;durP1;ratioP1;P1;durP2;ratioP2;P2;SDS_P1;SDS_P2;PMS_P1;PMS_P2;Temp;Humidity;BMP_temperature;BMP_pressure;BME280_temperature;BME280_humidity;BME280_pressure;Samples;Min_cycle;Max_cycle;Signal;HPM_P1;HPM_P2
2022/04/23 00:00:40;;;;;;;;;35.00;34.50;;;;;;;;5003720;28;11543;-72
2022/04/23 00:03:08;;;;;;;;;32.50;28.00;;;;;;;;5002205;28;11549;-73
2022/04/23 00:05:36;;;;;;;;;28.50;27.75;;;;;;;;5005071;28;11576;-72
2022/04/23 00:08:04;;;;;;;;;34.00;34.00;;;;;;;;5003217;28;11581;-74
2022/04/23 00:10:31;;;;;;;;;32.50;28.25;;;;;;;;4996759;28;11553;-73
2022/04/23 00:12:59;;;;;;;;;30.50;30.50;;;;;;;;5002364;28;11567;-73
2022/04/23 00:15:29;;;;;;;;;29.25;27.50;;;;;;;;5003087;28;12324;-71
2022/04/23 00:17:56;;;;;;;;;39.25;37.50;;;;;;;;4998959;28;11541;-72
2022/04/23 00:20:24;;;;;;;;;34.00;29.50;;;;;;;;5004162;28;11633;-72
2022/04/23 00:22:51;;;;;;;;;30.75;29.00;;;;;;;;5001749;28;11532;-73
2022/04/23 00:25:19;;;;;;;;;37.75;35.25;;;;;;;;4999580;28;11539;-74
2022/04/23 00:27:46;;;;;;;;;25.50;23.50;;;;;;;;5001749;28;11590;-73
2022/04/23 00:30:13;;;;;;;;;33.25;33.25;;;;;;;;5003073;28;11309;-72
2022/04/23 00:32:42;;;;;;;;;30.00;28.75;;;;;;;;5001741;28;12409;-72
2022/04/23 00:35:13;;;;;;;;;30.00;30.00;;;;;;;;5003854;28;11353;-72
2022/04/23 00:37:41;;;;;;;;;33.00;29.25;;;;;;;;4994637;28;11240;-71
2022/04/23 00:40:16;;;;;;;;;32.25;30.00;;;;;;;;5001338;28;11287;-72
2022/04/23 00:42:47;;;;;;;;;32.00;30.75;;;;;;;;5003036;28;11257;-72
2022/04/23 00:45:14;;;;;;;;;36.00;30.50;;;;;;;;5003387;28;11539;-72
2022/04/23 00:47:43;;;;;;;;;32.25;30.75;;;;;;;;5003300;28;11615;-72
2022/04/23 00:50:11;;;;;;;;;35.50;32.50;;;;;;;;4994608;28;11561;-71
2022/04/23 00:52:38;;;;;;;;;29.50;29.50;;;;;;;;5004093;28;11557;-72
2022/04/23 00:55:07;;;;;;;;;36.00;35.75;;;;;;;;5002963;28;11323;-72
2022/04/23 00:57:35;;;;;;;;;35.25;31.50;;;;;;;;5003229;28;11351;-73
2022/04/23 01:00:04;;;;;;;;;37.25;33.00;;;;;;;;5001065;28;11567;-73
2022/04/23 01:02:31;;;;;;;;;32.25;30.25;;;;;;;;5001200;28;11229;-73
2022/04/23 01:05:00;;;;;;;;;28.00;28.00;;;;;;;;4997838;28;11995;-72
2022/04/23 01:07:27;;;;;;;;;37.75;34.00;;;;;;;;5002632;28;11271;-72
2022/04/23 01:09:54;;;;;;;;;32.75;26.50;;;;;;;;5001930;28;11334;-73
2022/04/23 01:12:21;;;;;;;;;32.00;30.25;;;;;;;;5001654;28;11159;-73
2022/04/23 01:14:58;;;;;;;;;37.25;36.25;;;;;;;;5004493;28;12720;-72
2022/04/23 01:17:25;;;;;;;;;36.50;35.50;;;;;;;;4994347;28;11572;-72
2022/04/23 01:19:53;;;;;;;;;37.00;35.25;;;;;;;;5002566;28;11323;-73
2022/04/23 01:22:23;;;;;;;;;33.25;33.25;;;;;;;;5003050;28;11560;-73
2022/04/23 01:24:51;;;;;;;;;37.50;35.75;;;;;;;;4987664;28;11313;-73
2022/04/23 01:27:19;;;;;;;;;37.50;35.50;;;;;;;;4997468;28;11541;-74
2022/04/23 01:29:47;;;;;;;;;41.25;36.00;;;;;;;;5004391;28;11244;-73
2022/04/23 01:32:14;;;;;;;;;33.50;32.00;;;;;;;;5008401;28;12429;-73
2022/04/23 01:34:41;;;;;;;;;39.50;33.00;;;;;;;;4992857;28;11622;-73
2022/04/23 01:37:08;;;;;;;;;43.75;34.00;;;;;;;;5003276;28;11262;-73
2022/04/23 01:39:37;;;;;;;;;30.50;29.25;;;;;;;;4990000;28;11575;-73
2022/04/23 01:42:05;;;;;;;;;36.50;36.00;;;;;;;;4989055;28;11643;-73
2022/04/23 01:44:32;;;;;;;;;39.25;35.00;;;;;;;;4997803;28;12353;-73
2022/04/23 01:47:00;;;;;;;;;36.50;33.25;;;;;;;;4994541;28;12329;-73
2022/04/23 01:49:27;;;;;;;;;43.00;35.50;;;;;;;;4995533;28;11609;-73
2022/04/23 01:51:54;;;;;;;;;41.50;34.50;;;;;;;;4992357;28;11567;-74
2022/04/23 01:54:21;;;;;;;;;24.50;24.50;;;;;;;;4999135;28;12448;-73
2022/04/23 01:56:50;;;;;;;;;37.50;35.00;;;;;;;;4999179;28;11675;-73
2022/04/23 01:59:17;;;;;;;;;40.75;35.00;;;;;;;;4988516;28;11549;-72
2022/04/23 02:01:44;;;;;;;;;29.25;28.25;;;;;;;;4994322;28;11586;-74
2022/04/23 02:04:11;;;;;;;;;33.00;32.75;;;;;;;;5001478;28;11573;-73
2022/04/23 02:06:39;;;;;;;;;40.00;35.50;;;;;;;;5002099;28;11541;-72
2022/04/23 02:09:06;;;;;;;;;37.50;34.50;;;;;;;;4999000;28;12328;-74
2022/04/23 02:11:33;;;;;;;;;40.50;37.00;;;;;;;;4997784;28;11591;-72
2022/04/23 02:14:03;;;;;;;;;38.25;33.00;;;;;;;;4996734;28;12354;-72
2022/04/23 02:16:31;;;;;;;;;37.25;35.25;;;;;;;;5004739;28;11549;-73
2022/04/23 02:18:58;;;;;;;;;40.00;37.00;;;;;;;;5007780;28;11534;-75
2022/04/23 02:21:26;;;;;;;;;36.25;31.75;;;;;;;;5001464;28;11546;-72
2022/04/23 02:23:53;;;;;;;;;35.50;33.50;;;;;;;;5006543;28;11592;-74
2022/04/23 02:26:21;;;;;;;;;40.25;35.75;;;;;;;;4994787;28;11575;-73
2022/04/23 02:28:48;;;;;;;;;45.00;38.75;;;;;;;;5001089;28;11562;-75
2022/04/23 02:31:17;;;;;;;;;36.00;33.00;;;;;;;;5000949;28;11512;-73
2022/04/23 02:33:45;;;;;;;;;30.00;30.00;;;;;;;;5001677;28;11539;-73
2022/04/23 02:36:15;;;;;;;;;40.50;33.00;;;;;;;;5000809;28;11530;-74
2022/04/23 02:38:42;;;;;;;;;33.00;33.00;;;;;;;;5001633;28;11699;-74
2022/04/23 02:41:10;;;;;;;;;37.00;35.75;;;;;;;;5000528;28;11666;-75
2022/04/23 02:43:38;;;;;;;;;38.00;34.00;;;;;;;;4996014;28;11620;-74
2022/04/23 02:46:05;;;;;;;;;40.00;34.00;;;;;;;;5001161;28;11667;-73
2022/04/23 02:48:35;;;;;;;;;38.50;31.25;;;;;;;;4998827;28;11532;-72
2022/04/23 02:51:03;;;;;;;;;41.75;37.50;;;;;;;;4987796;28;11554;-72
2022/04/23 02:53:30;;;;;;;;;32.50;32.50;;;;;;;;4996495;28;11595;-72
2022/04/23 02:55:58;;;;;;;;;39.25;34.25;;;;;;;;5001778;28;11591;-72
2022/04/23 02:58:26;;;;;;;;;40.00;37.75;;;;;;;;4996484;28;11551;-73
2022/04/23 03:00:54;;;;;;;;;39.50;35.75;;;;;;;;4992612;28;11527;-73
2022/04/23 03:03:22;;;;;;;;;40.75;31.00;;;;;;;;5000660;28;11637;-73
2022/04/23 03:05:53;;;;;;;;;35.50;31.75;;;;;;;;4998350;28;11587;-74
2022/04/23 03:08:23;;;;;;;;;38.50;33.00;;;;;;;;4998647;28;12893;-72
2022/04/23 03:10:51;;;;;;;;;36.50;33.50;;;;;;;;4999927;28;11624;-74
2022/04/23 03:13:19;;;;;;;;;32.00;32.00;;;;;;;;5002351;28;11582;-73
2022/04/23 03:15:46;;;;;;;;;35.75;33.75;;;;;;;;5001908;28;11543;-73
2022/04/23 03:18:14;;;;;;;;;36.50;34.00;;;;;;;;5002902;28;11661;-73
2022/04/23 03:20:43;;;;;;;;;33.75;32.25;;;;;;;;5002490;28;11688;-73
2022/04/23 03:23:12;;;;;;;;;33.75;32.75;;;;;;;;5001518;28;11553;-73
2022/04/23 03:25:40;;;;;;;;;34.50;34.25;;;;;;;;5003411;28;11584;-74
2022/04/23 03:28:08;;;;;;;;;36.50;33.50;;;;;;;;4996049;28;11643;-73
2022/04/23 03:30:36;;;;;;;;;34.50;32.25;;;;;;;;5011581;28;13016;-73
2022/04/23 03:33:03;;;;;;;;;28.50;28.50;;;;;;;;5006105;28;12348;-73
2022/04/23 03:35:30;;;;;;;;;35.00;29.75;;;;;;;;5004746;28;11539;-73
2022/04/23 03:37:57;;;;;;;;;31.75;31.75;;;;;;;;5005598;28;11697;-73
2022/04/23 03:40:26;;;;;;;;;31.50;31.00;;;;;;;;5004727;28;11590;-73
2022/04/23 03:42:54;;;;;;;;;27.50;24.75;;;;;;;;5005529;28;11622;-74
2022/04/23 03:45:22;;;;;;;;;36.00;32.00;;;;;;;;5009560;28;11596;-73
2022/04/23 03:47:50;;;;;;;;;31.00;26.00;;;;;;;;5000889;28;11551;-74
2022/04/23 03:50:18;;;;;;;;;34.50;30.75;;;;;;;;4997027;28;11585;-73
2022/04/23 03:52:46;;;;;;;;;32.25;31.75;;;;;;;;5004960;28;11698;-73
2022/04/23 03:55:13;;;;;;;;;33.75;27.50;;;;;;;;5006304;28;11592;-73
2022/04/23 03:57:49;;;;;;;;;29.50;28.00;;;;;;;;5002988;28;11555;-73
2022/04/23 04:00:20;;;;;;;;;38.25;34.00;;;;;;;;4997934;28;11563;-74
2022/04/23 04:02:47;;;;;;;;;26.75;26.75;;;;;;;;5004726;28;11572;-74
2022/04/23 04:05:14;;;;;;;;;26.25;26.25;;;;;;;;5004817;28;11576;-73
2022/04/23 04:07:43;;;;;;;;;35.00;33.75;;;;;;;;5005431;28;11565;-72
2022/04/23 04:10:11;;;;;;;;;28.75;26.00;;;;;;;;5004312;28;12592;-72
2022/04/23 04:12:38;;;;;;;;;29.75;27.75;;;;;;;;5003755;28;12410;-72
2022/04/23 04:15:09;;;;;;;;;31.00;28.50;;;;;;;;5002657;28;11575;-73
2022/04/23 04:17:38;;;;;;;;;37.75;32.75;;;;;;;;5003422;28;11626;-72
2022/04/23 04:20:10;;;;;;;;;37.25;33.50;;;;;;;;5009124;28;11614;-72
2022/04/23 04:22:38;;;;;;;;;34.25;34.25;;;;;;;;5001533;28;11567;-72
2022/04/23 04:25:06;;;;;;;;;39.00;33.00;;;;;;;;5005069;28;11558;-72
2022/04/23 04:27:34;;;;;;;;;33.50;30.75;;;;;;;;4999900;28;11651;-72
2022/04/23 04:30:02;;;;;;;;;30.25;28.00;;;;;;;;4991113;28;12152;-72
2022/04/23 04:32:31;;;;;;;;;30.50;30.50;;;;;;;;5001982;28;11629;-73
2022/04/23 04:34:58;;;;;;;;;29.00;27.50;;;;;;;;5001639;28;11609;-73
2022/04/23 04:37:27;;;;;;;;;34.00;30.25;;;;;;;;4998593;28;11614;-72
2022/04/23 04:39:55;;;;;;;;;35.75;27.75;;;;;;;;5003970;28;11617;-73
2022/04/23 04:42:22;;;;;;;;;31.50;31.50;;;;;;;;5003133;28;11599;-73
2022/04/23 04:44:50;;;;;;;;;29.50;29.50;;;;;;;;4995861;28;11644;-73
2022/04/23 04:47:18;;;;;;;;;32.00;28.25;;;;;;;;5000278;28;11580;-73
2022/04/23 04:49:46;;;;;;;;;31.50;26.00;;;;;;;;5001561;28;11555;-73
2022/04/23 04:52:14;;;;;;;;;26.50;25.25;;;;;;;;5000094;28;11580;-73
2022/04/23 04:54:41;;;;;;;;;32.75;28.00;;;;;;;;4995191;28;11579;-74
2022/04/23 04:57:08;;;;;;;;;28.00;28.00;;;;;;;;5001935;28;11610;-73
2022/04/23 04:59:36;;;;;;;;;28.00;28.00;;;;;;;;4994848;28;11556;-73
2022/04/23 05:02:03;;;;;;;;;33.75;26.75;;;;;;;;4986637;28;11477;-73
2022/04/23 05:04:31;;;;;;;;;29.00;26.25;;;;;;;;4999115;28;11535;-74
2022/04/23 05:07:00;;;;;;;;;33.00;27.75;;;;;;;;5001606;28;11539;-73
2022/04/23 05:09:27;;;;;;;;;36.75;35.75;;;;;;;;4998810;28;11571;-72
2022/04/23 05:11:54;;;;;;;;;30.50;30.25;;;;;;;;5002793;28;11552;-74
2022/04/23 05:14:21;;;;;;;;;34.00;30.25;;;;;;;;4962533;28;11701;-74
2022/04/23 05:16:48;;;;;;;;;35.25;31.25;;;;;;;;4961645;28;12441;-73
2022/04/23 05:19:16;;;;;;;;;27.75;27.75;;;;;;;;4960863;28;11585;-72
2022/04/23 05:21:43;;;;;;;;;32.00;27.50;;;;;;;;4965155;28;12349;-73
2022/04/23 05:24:12;;;;;;;;;33.75;30.50;;;;;;;;4964244;28;11639;-73
2022/04/23 05:26:39;;;;;;;;;26.50;24.25;;;;;;;;4965676;28;11630;-74
2022/04/23 05:29:06;;;;;;;;;33.50;29.25;;;;;;;;4961391;28;12764;-72
2022/04/23 05:31:34;;;;;;;;;29.50;28.00;;;;;;;;4962077;28;12303;-72
2022/04/23 05:34:01;;;;;;;;;29.00;27.25;;;;;;;;4961134;28;11697;-79
2022/04/23 05:36:29;;;;;;;;;29.75;27.00;;;;;;;;4963294;28;11567;-78
2022/04/23 05:38:56;;;;;;;;;34.50;26.25;;;;;;;;4963414;28;12305;-80
2022/04/23 05:41:25;;;;;;;;;37.25;32.25;;;;;;;;4964301;28;11568;-81
2022/04/23 05:43:52;;;;;;;;;30.50;24.25;;;;;;;;4962774;28;11673;-80
2022/04/23 05:46:20;;;;;;;;;28.50;28.50;;;;;;;;4970586;28;11706;-80
2022/04/23 05:48:47;;;;;;;;;32.75;31.25;;;;;;;;4964100;28;11581;-78
2022/04/23 05:51:14;;;;;;;;;31.00;29.00;;;;;;;;4963618;28;11556;-81
2022/04/23 05:53:43;;;;;;;;;30.00;30.00;;;;;;;;4965243;28;11606;-80
2022/04/23 05:56:10;;;;;;;;;29.50;28.25;;;;;;;;4964444;28;11588;-79
2022/04/23 05:58:38;;;;;;;;;33.25;29.25;;;;;;;;4957616;28;11625;-78
2022/04/23 06:01:06;;;;;;;;;41.00;36.00;;;;;;;;4969575;28;11726;-79
2022/04/23 06:03:33;;;;;;;;;40.75;35.50;;;;;;;;4955393;28;11623;-77
2022/04/23 06:06:01;;;;;;;;;44.50;39.75;;;;;;;;4959663;28;11771;-77
2022/04/23 06:08:28;;;;;;;;;37.50;35.25;;;;;;;;4960509;28;11770;-77
2022/04/23 06:10:55;;;;;;;;;27.75;26.00;;;;;;;;4954175;28;11732;-81
2022/04/23 06:13:23;;;;;;;;;32.50;29.25;;;;;;;;4984997;28;11610;-81
2022/04/23 06:15:51;;;;;;;;;38.75;34.50;;;;;;;;5002081;28;11561;-81
2022/04/23 06:18:19;;;;;;;;;31.00;29.00;;;;;;;;5005895;28;11557;-80
2022/04/23 06:20:46;;;;;;;;;34.00;28.25;;;;;;;;4993953;28;11598;-79
2022/04/23 06:23:13;;;;;;;;;35.00;30.25;;;;;;;;4990421;28;11612;-79
2022/04/23 06:25:41;;;;;;;;;35.25;32.25;;;;;;;;4996816;28;11535;-81
2022/04/23 06:28:10;;;;;;;;;36.50;32.50;;;;;;;;4985174;28;11960;-78
2022/04/23 06:30:37;;;;;;;;;34.00;32.25;;;;;;;;4998468;28;11364;-78
2022/04/23 06:33:06;;;;;;;;;30.50;29.50;;;;;;;;4997397;28;11608;-79
2022/04/23 06:35:34;;;;;;;;;29.00;29.00;;;;;;;;5000517;28;11308;-79
2022/04/23 06:38:02;;;;;;;;;34.00;31.50;;;;;;;;4999854;28;12483;-77
2022/04/23 06:40:29;;;;;;;;;29.50;26.50;;;;;;;;5001436;28;11314;-78
2022/04/23 06:42:56;;;;;;;;;31.25;27.75;;;;;;;;5000126;28;11346;-78
2022/04/23 06:45:24;;;;;;;;;25.50;25.50;;;;;;;;5001863;28;12093;-79
2022/04/23 06:48:02;;;;;;;;;30.75;28.50;;;;;;;;5000163;28;11202;-80
2022/04/23 06:50:31;;;;;;;;;32.50;32.50;;;;;;;;4987848;28;11234;-81
2022/04/23 06:52:59;;;;;;;;;32.25;31.75;;;;;;;;5001178;28;11283;-82
2022/04/23 06:55:27;;;;;;;;;36.00;33.50;;;;;;;;5001531;28;11117;-82
2022/04/23 06:57:54;;;;;;;;;29.75;27.75;;;;;;;;5000850;28;11040;-76
2022/04/23 07:00:22;;;;;;;;;32.75;31.25;;;;;;;;4997946;28;11124;-76
2022/04/23 07:02:49;;;;;;;;;29.00;28.25;;;;;;;;5005032;28;11046;-77
2022/04/23 07:05:17;;;;;;;;;28.75;28.00;;;;;;;;5004732;28;11780;-79
2022/04/23 07:07:57;;;;;;;;;25.50;25.50;;;;;;;;5006043;28;10950;-79
2022/04/23 07:10:25;;;;;;;;;32.50;29.75;;;;;;;;5007475;28;10916;-79
2022/04/23 07:12:53;;;;;;;;;33.00;29.00;;;;;;;;5005879;28;10871;-81
2022/04/23 07:15:21;;;;;;;;;32.75;31.75;;;;;;;;5005686;28;10871;-80
2022/04/23 07:17:49;;;;;;;;;28.75;28.50;;;;;;;;5006332;28;10901;-80
2022/04/23 07:20:17;;;;;;;;;28.00;26.25;;;;;;;;5005702;28;10749;-79
2022/04/23 07:24:03;;;;;;;;;27.00;25.00;;;;;;;;5004101;28;10703;-79
2022/04/23 07:25:34;;;;;;;;;27.50;27.00;;;;;;;;4999130;28;10828;-83
2022/04/23 07:28:02;;;;;;;;;21.25;21.25;;;;;;;;5002752;28;10618;-83
2022/04/23 07:30:31;;;;;;;;;25.00;25.00;;;;;;;;5002806;28;10368;-81
2022/04/23 07:32:59;;;;;;;;;31.00;29.00;;;;;;;;5001638;28;10552;-83
2022/04/23 07:38:12;;;;;;;;;29.50;29.00;;;;;;;;5006179;28;10366;-82
2022/04/23 07:40:41;;;;;;;;;30.25;30.25;;;;;;;;5005528;28;11304;-82
2022/04/23 07:43:12;;;;;;;;;28.75;28.75;;;;;;;;5004774;28;10462;-79
2022/04/23 07:45:39;;;;;;;;;27.75;25.75;;;;;;;;5005564;28;10369;-83
2022/04/23 07:48:08;;;;;;;;;31.75;31.50;;;;;;;;5004316;28;10213;-81
2022/04/23 07:50:36;;;;;;;;;32.75;29.75;;;;;;;;5006188;28;11168;-83
2022/04/23 07:53:04;;;;;;;;;38.50;32.25;;;;;;;;5004440;28;10248;-81
2022/04/23 07:55:33;;;;;;;;;29.25;29.25;;;;;;;;5005684;28;10227;-82
2022/04/23 07:58:04;;;;;;;;;26.00;24.00;;;;;;;;5008128;28;10055;-82
2022/04/23 08:00:31;;;;;;;;;28.75;26.25;;;;;;;;4997999;28;9900;-81
2022/04/23 08:02:59;;;;;;;;;28.50;28.00;;;;;;;;5003954;28;10033;-79
2022/04/23 08:05:26;;;;;;;;;19.50;19.50;;;;;;;;5001980;28;9787;-83
2022/04/23 08:07:54;;;;;;;;;26.75;24.50;;;;;;;;5005950;28;9804;-84
2022/04/23 08:10:21;;;;;;;;;27.00;26.50;;;;;;;;5003028;28;9936;-82
2022/04/23 08:12:48;;;;;;;;;25.50;24.75;;;;;;;;5003751;28;9865;-81
2022/04/23 08:15:17;;;;;;;;;30.50;28.00;;;;;;;;5004236;28;9771;-82
2022/04/23 08:17:44;;;;;;;;;30.50;27.25;;;;;;;;5003228;28;9873;-83
2022/04/23 08:20:13;;;;;;;;;31.50;29.00;;;;;;;;5004768;28;9764;-82
2022/04/23 08:22:40;;;;;;;;;26.50;26.50;;;;;;;;5003998;28;9742;-81
2022/04/23 08:25:09;;;;;;;;;27.50;24.00;;;;;;;;5004169;28;9856;-80
2022/04/23 08:27:48;;;;;;;;;20.25;19.50;;;;;;;;5003629;28;9635;-80
2022/04/23 08:30:34;;;;;;;;;26.00;23.75;;;;;;;;5001261;28;9573;-83
2022/04/23 08:33:01;;;;;;;;;30.00;24.25;;;;;;;;5000543;28;10322;-82
2022/04/23 08:35:28;;;;;;;;;26.75;26.75;;;;;;;;5003975;28;9666;-81
2022/04/23 08:37:56;;;;;;;;;29.00;27.25;;;;;;;;5002689;28;9599;-83
2022/04/23 08:40:23;;;;;;;;;21.00;21.00;;;;;;;;5001641;28;9573;-83
2022/04/23 08:42:50;;;;;;;;;27.75;27.75;;;;;;;;5004435;28;9418;-81
2022/04/23 08:45:20;;;;;;;;;27.00;24.67;;;;;;;;5002519;28;9662;-84
2022/04/23 08:47:48;;;;;;;;;26.33;23.67;;;;;;;;5004138;28;9405;-83
2022/04/23 08:50:18;;;;;;;;;37.75;32.50;;;;;;;;5010982;28;9655;-82
2022/04/23 08:52:52;;;;;;;;;26.00;26.00;;;;;;;;5019555;28;9524;-79
2022/04/23 08:55:21;;;;;;;;;25.33;23.67;;;;;;;;5003337;28;9275;-85
2022/04/23 08:57:48;;;;;;;;;30.33;27.67;;;;;;;;5001497;28;10221;-82
2022/04/23 09:00:17;;;;;;;;;31.67;29.67;;;;;;;;5000030;28;9206;-81
2022/04/23 09:02:47;;;;;;;;;29.33;28.67;;;;;;;;5000693;28;9393;-82
2022/04/23 09:05:15;;;;;;;;;27.00;24.33;;;;;;;;5005262;28;10061;-84
2022/04/23 09:07:53;;;;;;;;;30.67;30.33;;;;;;;;5003012;28;9174;-85
2022/04/23 09:10:21;;;;;;;;;26.00;26.00;;;;;;;;5001219;28;9197;-82
2022/04/23 09:12:56;;;;;;;;;31.33;31.00;;;;;;;;5004286;28;9900;-84
2022/04/23 09:24:08;;;;;;;;;26.67;26.00;;;;;;;;5001951;28;8938;-82
2022/04/23 09:26:35;;;;;;;;;29.00;26.67;;;;;;;;5001479;28;9049;-79
2022/04/23 09:29:14;;;;;;;;;25.67;25.67;;;;;;;;5002144;28;8960;-79
2022/04/23 09:31:42;;;;;;;;;28.50;24.50;;;;;;;;4999228;28;9049;-83
2022/04/23 09:34:17;;;;;;;;;27.67;26.33;;;;;;;;5000972;28;8943;-83
2022/04/23 09:36:49;;;;;;;;;26.67;25.00;;;;;;;;5003021;28;9143;-85
2022/04/23 09:39:16;;;;;;;;;31.00;30.00;;;;;;;;5002737;28;8957;-83
2022/04/23 09:41:44;;;;;;;;;22.33;20.00;;;;;;;;5004766;28;8956;-81
2022/04/23 09:44:12;;;;;;;;;26.50;25.25;;;;;;;;5007183;28;9145;-77
2022/04/23 09:46:46;;;;;;;;;29.50;28.00;;;;;;;;4999274;28;8870;-84
2022/04/23 09:49:13;;;;;;;;;33.00;32.33;;;;;;;;5001793;28;8880;-80
2022/04/23 09:51:42;;;;;;;;;30.25;30.25;;;;;;;;5004009;28;8965;-81
2022/04/23 09:54:09;;;;;;;;;32.00;31.33;;;;;;;;4997573;28;8868;-86
2022/04/23 09:56:37;;;;;;;;;30.33;29.33;;;;;;;;5003865;28;9107;-83
2022/04/23 09:59:06;;;;;;;;;31.00;30.00;;;;;;;;5003236;28;8973;-86
2022/04/23 10:01:35;;;;;;;;;31.67;29.67;;;;;;;;5002469;28;8903;-81
2022/04/23 10:04:02;;;;;;;;;33.25;30.25;;;;;;;;5007236;28;9001;-83
2022/04/23 10:06:35;;;;;;;;;28.75;28.75;;;;;;;;5007294;28;8884;-85
2022/04/23 10:09:05;;;;;;;;;31.00;26.00;;;;;;;;5003846;28;8852;-80
2022/04/23 10:11:33;;;;;;;;;24.00;24.00;;;;;;;;4989805;28;8880;-83
2022/04/23 10:14:04;;;;;;;;;30.25;30.25;;;;;;;;4991506;28;8882;-84
2022/04/23 10:16:31;;;;;;;;;35.50;30.75;;;;;;;;5003367;28;9002;-84
2022/04/23 10:18:59;;;;;;;;;30.00;28.50;;;;;;;;4997723;28;8934;-83
2022/04/23 10:21:32;;;;;;;;;28.00;25.50;;;;;;;;5002580;28;8845;-85
2022/04/23 10:24:07;;;;;;;;;30.00;28.50;;;;;;;;5003873;28;9258;-80
2022/04/23 10:26:39;;;;;;;;;29.50;27.50;;;;;;;;5003784;28;8880;-83
2022/04/23 10:29:10;;;;;;;;;21.25;20.50;;;;;;;;5002734;28;9002;-83
2022/04/23 10:31:38;;;;;;;;;26.50;26.50;;;;;;;;5001310;28;8824;-83
2022/04/23 10:34:05;;;;;;;;;30.25;30.25;;;;;;;;5001882;28;8880;-79
2022/04/23 10:36:32;;;;;;;;;29.00;28.50;;;;;;;;4998029;28;9646;-81
2022/04/23 10:39:23;;;;;;;;;30.00;27.25;;;;;;;;5002888;28;8872;-80
2022/04/23 10:41:53;;;;;;;;;24.00;22.50;;;;;;;;4995778;28;10170;-77
2022/04/23 10:44:22;;;;;;;;;29.75;27.00;;;;;;;;4995347;28;8888;-78
2022/04/23 10:46:51;;;;;;;;;27.00;24.00;;;;;;;;4989845;28;8870;-83
2022/04/23 10:49:22;;;;;;;;;24.25;24.25;;;;;;;;4997471;28;8876;-80
2022/04/23 10:51:51;;;;;;;;;27.50;26.50;;;;;;;;5013678;28;8935;-80
2022/04/23 10:54:21;;;;;;;;;29.75;29.75;;;;;;;;5001193;28;8990;-82
2022/04/23 10:56:57;;;;;;;;;27.50;25.25;;;;;;;;5003004;28;8860;-79
2022/04/23 10:59:39;;;;;;;;;26.25;25.75;;;;;;;;4994714;28;8868;-79
2022/04/23 11:02:13;;;;;;;;;28.50;27.50;;;;;;;;5001959;28;8828;-78
2022/04/23 11:12:14;;;;;;;;;27.00;24.50;;;;;;;;4990633;28;8891;-79
2022/04/23 11:13:37;;;;;;;;;25.50;22.75;;;;;;;;4993317;28;8892;-79
2022/04/23 11:16:17;;;;;;;;;25.00;23.50;;;;;;;;5002139;28;9009;-84
2022/04/23 11:18:46;;;;;;;;;22.00;22.00;;;;;;;;5000148;28;8939;-84
2022/04/23 11:21:17;;;;;;;;;22.50;22.50;;;;;;;;4999735;28;8970;-81
2022/04/23 11:23:47;;;;;;;;;25.25;25.25;;;;;;;;4992801;28;8873;-80
2022/04/23 11:26:14;;;;;;;;;20.50;20.50;;;;;;;;5013125;28;8875;-82
2022/04/23 11:28:44;;;;;;;;;20.75;20.75;;;;;;;;5003718;28;8934;-82
2022/04/23 11:31:16;;;;;;;;;25.25;23.25;;;;;;;;5004710;28;8825;-79
2022/04/23 11:33:55;;;;;;;;;19.50;17.50;;;;;;;;4998851;28;8970;-80
2022/04/23 11:36:27;;;;;;;;;28.00;26.25;;;;;;;;4995918;28;8917;-81
2022/04/23 11:38:54;;;;;;;;;23.75;21.75;;;;;;;;5000492;28;8868;-77
2022/04/23 11:41:32;;;;;;;;;19.50;18.00;;;;;;;;4997419;28;8871;-79
2022/04/23 11:44:12;;;;;;;;;21.25;20.25;;;;;;;;4999251;28;8932;-82
2022/04/23 11:46:44;;;;;;;;;19.00;19.00;;;;;;;;4987554;28;9658;-81
2022/04/23 11:49:11;;;;;;;;;17.50;17.50;;;;;;;;5003845;28;8876;-78
2022/04/23 11:51:50;;;;;;;;;19.50;19.25;;;;;;;;5003076;28;8860;-82
2022/04/23 11:54:17;;;;;;;;;17.75;17.75;;;;;;;;5004157;28;8896;-76
2022/04/23 11:56:46;;;;;;;;;18.00;18.00;;;;;;;;5002185;28;8883;-80
2022/04/23 11:59:16;;;;;;;;;20.25;18.75;;;;;;;;5004040;28;8880;-82
2022/04/23 12:01:45;;;;;;;;;21.00;19.75;;;;;;;;5003008;28;8915;-80
2022/04/23 12:04:14;;;;;;;;;19.50;18.50;;;;;;;;4992486;28;8983;-77
2022/04/23 12:06:45;;;;;;;;;15.50;14.50;;;;;;;;5002146;28;8891;-79
2022/04/23 12:09:13;;;;;;;;;16.75;16.25;;;;;;;;4998674;28;8876;-81
2022/04/23 12:11:41;;;;;;;;;21.00;19.25;;;;;;;;5003673;28;9011;-80
2022/04/23 12:14:09;;;;;;;;;18.00;18.00;;;;;;;;4999453;28;8876;-81
2022/04/23 12:16:40;;;;;;;;;14.50;14.50;;;;;;;;5004193;28;9440;-79
2022/04/23 12:19:09;;;;;;;;;17.50;17.50;;;;;;;;4990117;28;9003;-79
2022/04/23 12:21:38;;;;;;;;;14.50;11.75;;;;;;;;5014679;28;9689;-82
2022/04/23 12:24:07;;;;;;;;;12.00;10.75;;;;;;;;5003965;28;8871;-82
2022/04/23 12:26:36;;;;;;;;;18.00;16.00;;;;;;;;5001778;28;8884;-77
2022/04/23 12:43:18;;;;;;;;;15.25;15.25;;;;;;;;5003235;28;8995;-81
2022/04/23 12:45:46;;;;;;;;;15.00;15.00;;;;;;;;5001895;28;8876;-80
2022/04/23 12:48:14;;;;;;;;;21.25;18.00;;;;;;;;5001935;28;8872;-81
2022/04/23 12:50:42;;;;;;;;;15.75;15.50;;;;;;;;5013865;28;8980;-79
2022/04/23 12:53:10;;;;;;;;;15.75;15.75;;;;;;;;4989197;28;8872;-82
2022/04/23 12:55:38;;;;;;;;;19.50;15.00;;;;;;;;4999465;28;8954;-81
2022/04/23 12:58:09;;;;;;;;;14.25;13.50;;;;;;;;5002454;28;8888;-79
2022/04/23 13:00:38;;;;;;;;;16.25;16.25;;;;;;;;5002082;28;8796;-79
2022/04/23 13:03:27;;;;;;;;;16.75;15.75;;;;;;;;4997010;28;8880;-79
2022/04/23 13:05:54;;;;;;;;;19.50;18.00;;;;;;;;5001532;28;8899;-78
2022/04/23 13:13:54;;;;;;;;;15.75;14.25;;;;;;;;4999334;28;8884;-81
2022/04/23 13:16:24;;;;;;;;;14.50;14.50;;;;;;;;5002540;28;8895;-81
2022/04/23 13:18:55;;;;;;;;;12.00;12.00;;;;;;;;5000948;28;8879;-76
2022/04/23 13:21:23;;;;;;;;;9.60;8.00;;;;;;;;5002732;28;8888;-80
2022/04/23 13:23:52;;;;;;;;;10.00;10.00;;;;;;;;5005241;28;8905;-80
2022/04/23 13:26:19;;;;;;;;;14.60;12.00;;;;;;;;5001276;28;8880;-78
2022/04/23 13:28:47;;;;;;;;;11.00;11.00;;;;;;;;4999571;28;8872;-77
2022/04/23 13:31:15;;;;;;;;;10.00;10.00;;;;;;;;4998206;28;8822;-78
2022/04/23 13:33:42;;;;;;;;;13.80;11.40;;;;;;;;5001738;28;8852;-78
2022/04/23 13:36:11;;;;;;;;;9.60;9.40;;;;;;;;5000453;28;8989;-79
2022/04/23 13:38:40;;;;;;;;;6.20;6.20;;;;;;;;5000476;28;8900;-78
2022/04/23 13:41:11;;;;;;;;;9.00;9.00;;;;;;;;4999794;28;8976;-81
2022/04/23 13:43:38;;;;;;;;;9.00;9.00;;;;;;;;5001070;28;8898;-77
2022/04/23 13:46:05;;;;;;;;;7.60;6.40;;;;;;;;5000198;28;8983;-79
2022/04/23 13:48:33;;;;;;;;;8.80;8.80;;;;;;;;4994721;28;8871;-79
2022/04/23 13:51:00;;;;;;;;;6.00;6.00;;;;;;;;4981891;28;8867;-78
2022/04/23 13:53:28;;;;;;;;;9.00;9.00;;;;;;;;4986489;28;8868;-78
2022/04/23 13:55:56;;;;;;;;;9.20;9.20;;;;;;;;4989965;28;9740;-82
2022/04/23 13:58:23;;;;;;;;;7.40;7.40;;;;;;;;4989559;28;8888;-79
2022/04/23 14:00:50;;;;;;;;;6.40;6.40;;;;;;;;4993806;28;8842;-78
2022/04/23 14:11:32;;;;;;;;;8.60;6.60;;;;;;;;4997292;28;8881;-80
2022/04/23 14:14:01;;;;;;;;;6.80;6.80;;;;;;;;4997919;28;8870;-81
2022/04/23 14:16:28;;;;;;;;;4.80;4.40;;;;;;;;4993937;28;8924;-78
2022/04/23 14:18:56;;;;;;;;;5.60;5.60;;;;;;;;4986534;28;8900;-79
2022/04/23 14:21:23;;;;;;;;;6.60;6.60;;;;;;;;4997388;28;8872;-79
2022/04/23 14:23:52;;;;;;;;;4.60;4.60;;;;;;;;4998870;28;8875;-80
2022/04/23 14:26:19;;;;;;;;;5.00;5.00;;;;;;;;4997115;28;8956;-79
2022/04/23 14:28:46;;;;;;;;;4.00;4.00;;;;;;;;4990499;28;8865;-80
2022/04/23 14:31:14;;;;;;;;;4.80;4.20;;;;;;;;4997318;28;8844;-81
2022/04/23 14:33:41;;;;;;;;;5.20;5.20;;;;;;;;4990901;28;8898;-81
2022/04/23 14:36:08;;;;;;;;;5.80;5.80;;;;;;;;4994765;28;8868;-78
2022/04/23 14:38:38;;;;;;;;;4.00;4.00;;;;;;;;4990693;28;8969;-86
2022/04/23 14:41:07;;;;;;;;;3.00;3.00;;;;;;;;4995389;28;8904;-82
2022/04/23 14:43:36;;;;;;;;;3.40;3.00;;;;;;;;4989219;28;8881;-83
2022/04/23 14:46:03;;;;;;;;;5.40;5.40;;;;;;;;4998264;28;8882;-79
2022/04/23 14:48:31;;;;;;;;;5.40;4.80;;;;;;;;4999114;28;8915;-82
2022/04/23 14:53:44;;;;;;;;;4.80;4.00;;;;;;;;4995520;28;8843;-80
2022/04/23 14:56:14;;;;;;;;;4.40;4.40;;;;;;;;4999442;28;8883;-82
2022/04/23 14:58:41;;;;;;;;;4.00;4.00;;;;;;;;4997283;28;8896;-82
2022/04/23 15:01:08;;;;;;;;;6.00;6.00;;;;;;;;5001953;28;8817;-84
2022/04/23 15:03:36;;;;;;;;;7.00;7.00;;;;;;;;5001707;28;8908;-81
2022/04/23 15:06:04;;;;;;;;;11.00;9.25;;;;;;;;5001375;28;9003;-79
2022/04/23 15:08:32;;;;;;;;;5.25;5.25;;;;;;;;4992283;28;9006;-82
2022/04/23 15:11:00;;;;;;;;;7.50;7.50;;;;;;;;4990745;28;8874;-80
2022/04/23 15:13:28;;;;;;;;;9.00;9.00;;;;;;;;4997785;28;8902;-80
2022/04/23 15:15:56;;;;;;;;;10.50;9.00;;;;;;;;4990729;28;8900;-85
2022/04/23 15:18:24;;;;;;;;;7.00;7.00;;;;;;;;5005948;28;8884;-79
2022/04/23 15:20:51;;;;;;;;;7.25;7.25;;;;;;;;5001056;28;8876;-80
2022/04/23 15:23:18;;;;;;;;;7.00;7.00;;;;;;;;5000893;28;9015;-83